createdAt,value
2018-11-03T00:01:12.500Z,10.27
2018-11-03T00:06:21.406Z,12.10
2018-11-03T00:08:49.933Z,13.27
2018-11-03T00:11:18.346Z,9.93
2018-11-03T00:13:46.779Z,17.23
2018-11-03T00:16:15.172Z,13.77
2018-11-03T00:18:43.634Z,11.27
2018-11-03T00:21:12.129Z,12.63
2018-11-03T00:23:40.605Z,10.07
2018-11-03T00:26:09.056Z,17.00
2018-11-03T00:28:37.580Z,11.23
2018-11-03T00:31:06.077Z,10.23
2018-11-03T00:33:34.585Z,10.80
2018-11-03T00:36:03.056Z,11.00
2018-11-03T00:38:31.516Z,9.00
2018-11-03T00:41:00.092Z,11.20
2018-11-03T00:43:28.555Z,9.93
2018-11-03T00:45:57.055Z,10.70
2018-11-03T00:48:25.494Z,11.87
2018-11-03T00:50:54.041Z,8.80
2018-11-03T00:53:22.551Z,13.73
2018-11-03T00:55:51.015Z,11.60
2018-11-03T00:58:19.485Z,18.37
2018-11-03T01:00:47.880Z,10.87
2018-11-03T01:03:16.266Z,10.27
2018-11-03T01:05:44.742Z,11.63
2018-11-03T01:08:13.220Z,22.60
2018-11-03T01:10:41.646Z,11.80
2018-11-03T01:13:10.058Z,12.43
2018-11-03T01:15:38.499Z,11.40
2018-11-03T01:18:06.985Z,13.07
2018-11-03T01:20:35.425Z,9.53
2018-11-03T01:23:03.893Z,11.40
2018-11-03T01:25:32.278Z,9.23
2018-11-03T01:28:00.676Z,10.20
2018-11-03T01:30:29.111Z,12.73
2018-11-03T01:32:57.528Z,14.73
2018-11-03T01:35:25.994Z,13.87
2018-11-03T01:37:54.443Z,15.90
2018-11-03T01:40:22.846Z,15.83
2018-11-03T01:42:51.345Z,11.63
2018-11-03T01:45:19.809Z,16.97
2018-11-03T01:47:48.317Z,8.90
2018-11-03T01:50:16.718Z,10.63
2018-11-03T01:52:45.191Z,12.90
2018-11-03T01:55:13.611Z,11.73
2018-11-03T01:57:42.147Z,15.77
2018-11-03T02:00:11.462Z,12.10
2018-11-03T02:02:39.970Z,13.70
2018-11-03T02:05:09.084Z,11.00
2018-11-03T02:07:37.537Z,9.17
2018-11-03T02:10:07.387Z,13.17
2018-11-03T02:12:35.849Z,9.63
2018-11-03T02:15:04.354Z,10.17
2018-11-03T02:17:32.885Z,12.33
2018-11-03T02:20:01.297Z,14.50
2018-11-03T02:22:29.667Z,11.93
2018-11-03T02:24:58.070Z,11.23
2018-11-03T02:27:26.496Z,9.70
2018-11-03T02:29:54.889Z,9.80
2018-11-03T02:32:23.316Z,8.87
2018-11-03T02:34:51.746Z,23.63
2018-11-03T02:37:20.154Z,10.77
2018-11-03T02:39:48.595Z,15.23
2018-11-03T02:42:17.154Z,9.57
2018-11-03T02:44:45.583Z,10.40
2018-11-03T02:47:14.035Z,10.60
2018-11-03T02:49:42.474Z,9.90
2018-11-03T02:52:11.045Z,14.10
2018-11-03T02:54:39.488Z,11.53
2018-11-03T02:57:07.892Z,13.00
2018-11-03T02:59:36.347Z,11.17
2018-11-03T03:02:05.234Z,8.50
2018-11-03T03:04:34.936Z,9.50
2018-11-03T03:07:03.445Z,11.90
2018-11-03T03:09:31.902Z,13.70
2018-11-03T03:12:00.347Z,10.53
2018-11-03T03:14:28.750Z,13.47
2018-11-03T03:16:57.141Z,8.70
2018-11-03T03:19:25.553Z,13.20
2018-11-03T03:21:53.994Z,12.23
2018-11-03T03:24:22.412Z,12.87
2018-11-03T03:26:50.836Z,8.17
2018-11-03T03:29:19.313Z,8.33
2018-11-03T03:31:47.761Z,11.20
2018-11-03T03:34:16.141Z,10.23
2018-11-03T03:36:44.518Z,15.27
2018-11-03T03:39:12.932Z,12.37
2018-11-03T03:41:41.384Z,8.37
2018-11-03T03:44:09.817Z,10.10
2018-11-03T03:46:38.314Z,14.53
2018-11-03T03:49:06.768Z,9.60
2018-11-03T03:51:35.192Z,9.13
2018-11-03T03:54:03.753Z,9.37
2018-11-03T03:56:32.186Z,8.80
2018-11-03T03:59:00.959Z,11.13
2018-11-03T04:01:29.373Z,8.20
2018-11-03T04:03:57.792Z,12.90
2018-11-03T04:06:26.229Z,10.67
2018-11-03T04:08:54.634Z,12.43
2018-11-03T04:11:23.092Z,12.87
2018-11-03T04:13:51.539Z,11.10
2018-11-03T04:16:20.273Z,18.00
2018-11-03T04:18:48.684Z,9.50
2018-11-03T04:21:27.030Z,9.30
2018-11-03T04:23:55.604Z,21.23
2018-11-03T04:26:24.049Z,10.40
2018-11-03T04:28:52.487Z,11.10
2018-11-03T04:31:20.950Z,12.33
2018-11-03T04:33:49.394Z,10.87
2018-11-03T04:36:17.917Z,8.23
2018-11-03T04:38:46.356Z,11.80
2018-11-03T04:41:14.786Z,14.60
2018-11-03T04:43:43.209Z,17.93
2018-11-03T04:46:11.615Z,9.53
2018-11-03T04:48:40.082Z,9.67
2018-11-03T04:51:09.024Z,10.70
2018-11-03T04:53:37.423Z,8.60
2018-11-03T04:56:05.856Z,11.80
2018-11-03T04:58:34.277Z,9.20
2018-11-03T05:01:02.703Z,14.50
2018-11-03T05:03:31.175Z,11.90
2018-11-03T05:05:59.577Z,10.53
2018-11-03T05:08:27.999Z,9.80
2018-11-03T05:10:56.420Z,10.03
2018-11-03T05:13:24.800Z,11.10
2018-11-03T05:15:53.204Z,13.93
2018-11-03T05:18:21.655Z,18.03
2018-11-03T05:20:50.069Z,9.30
2018-11-03T05:23:18.497Z,12.17
2018-11-03T05:25:46.935Z,9.67
2018-11-03T05:28:15.396Z,12.63
2018-11-03T05:30:43.792Z,9.93
2018-11-03T05:33:12.166Z,11.10
2018-11-03T05:35:40.567Z,13.83
2018-11-03T05:38:08.998Z,11.40
2018-11-03T05:40:37.450Z,10.77
2018-11-03T05:43:06.175Z,16.70
2018-11-03T05:45:34.600Z,10.40
2018-11-03T05:48:03.105Z,13.40
2018-11-03T05:50:31.542Z,20.03
2018-11-03T05:53:00.066Z,10.80
2018-11-03T05:55:28.502Z,14.67
2018-11-03T05:57:56.915Z,11.17
2018-11-03T06:00:27.281Z,13.53
2018-11-03T06:02:57.082Z,10.43
2018-11-03T06:05:25.523Z,12.23
2018-11-03T06:07:54.018Z,13.17
2018-11-03T06:10:22.442Z,10.33
2018-11-03T06:12:50.894Z,10.73
2018-11-03T06:15:19.532Z,13.67
2018-11-03T06:17:47.924Z,9.53
2018-11-03T06:20:16.363Z,13.40
2018-11-03T06:22:44.781Z,13.10
2018-11-03T06:25:13.245Z,11.17
2018-11-03T06:27:41.653Z,14.40
2018-11-03T06:30:11.324Z,22.63
2018-11-03T06:32:39.984Z,14.50
2018-11-03T06:35:09.530Z,10.53
2018-11-03T06:37:37.987Z,12.10
2018-11-03T06:40:07.712Z,12.17
2018-11-03T06:42:36.778Z,11.10
2018-11-03T06:45:06.065Z,9.80
2018-11-03T06:47:34.525Z,12.67
2018-11-03T06:50:02.980Z,12.47
2018-11-03T06:52:31.364Z,11.73
2018-11-03T06:54:59.767Z,10.23
2018-11-03T06:57:28.336Z,13.37
2018-11-03T06:59:56.740Z,15.60
2018-11-03T07:02:25.157Z,17.40
2018-11-03T07:04:53.601Z,13.43
2018-11-03T07:07:22.065Z,11.33
2018-11-03T07:09:50.533Z,13.53
2018-11-03T07:12:19.057Z,12.30
2018-11-03T07:14:47.448Z,20.47
2018-11-03T07:17:16.312Z,12.20
2018-11-03T07:19:44.814Z,16.67
2018-11-03T07:22:13.276Z,14.23
2018-11-03T07:24:41.765Z,16.43
2018-11-03T07:27:10.227Z,13.20
2018-11-03T07:29:38.714Z,16.37
2018-11-03T07:32:07.359Z,20.17
2018-11-03T07:34:35.765Z,15.33
2018-11-03T07:37:04.229Z,14.37
2018-11-03T07:39:32.663Z,18.37
2018-11-03T07:42:01.221Z,13.53
2018-11-03T07:44:29.660Z,14.03
2018-11-03T07:46:58.030Z,16.00
2018-11-03T07:49:26.528Z,15.00
2018-11-03T07:51:54.946Z,19.53
2018-11-03T07:54:23.415Z,18.00
2018-11-03T07:56:51.795Z,16.40
2018-11-03T07:59:20.215Z,21.33
2018-11-03T08:01:48.708Z,18.10
2018-11-03T08:04:17.148Z,19.80
2018-11-03T08:06:45.656Z,19.77
2018-11-03T08:09:14.163Z,28.23
2018-11-03T08:11:42.572Z,34.83
2018-11-03T08:14:11.066Z,24.90
2018-11-03T08:16:39.492Z,23.13
2018-11-03T08:19:07.980Z,20.63
2018-11-03T08:21:36.429Z,25.40
2018-11-03T08:24:05.100Z,21.53
2018-11-03T08:26:33.492Z,25.03
2018-11-03T08:29:01.906Z,27.00
2018-11-03T08:31:30.387Z,27.27
2018-11-03T08:33:58.784Z,25.27
2018-11-03T08:36:27.223Z,23.60
2018-11-03T08:38:55.644Z,22.17
2018-11-03T08:41:24.084Z,26.67
2018-11-03T08:43:52.568Z,27.53
2018-11-03T08:46:21.003Z,34.50
2018-11-03T08:48:49.488Z,32.20
2018-11-03T08:51:17.849Z,26.03
2018-11-03T08:53:46.261Z,47.90
2018-11-03T08:56:14.736Z,42.07
2018-11-03T08:58:43.179Z,35.90
2018-11-03T09:01:11.625Z,33.83
2018-11-03T09:03:40.042Z,35.63
2018-11-03T09:06:08.510Z,31.63
2018-11-03T09:08:36.968Z,31.20
2018-11-03T09:11:05.595Z,33.47
2018-11-03T09:13:34.052Z,38.30
2018-11-03T09:16:02.548Z,31.97
2018-11-03T09:18:31.033Z,36.80
2018-11-03T09:20:59.532Z,34.70
2018-11-03T09:23:27.990Z,38.80
2018-11-03T09:25:56.456Z,38.40
2018-11-03T09:28:24.926Z,37.00
2018-11-03T09:30:53.367Z,43.40
2018-11-03T09:33:21.766Z,45.50
2018-11-03T09:35:50.152Z,32.93
2018-11-03T09:38:18.645Z,34.87
2018-11-03T09:40:47.047Z,42.53
2018-11-03T09:43:15.564Z,40.77
2018-11-03T09:45:43.988Z,43.03
2018-11-03T09:48:12.464Z,40.43
2018-11-03T09:50:40.962Z,38.23
2018-11-03T09:53:09.381Z,47.03
2018-11-03T09:55:37.828Z,50.30
2018-11-03T09:58:06.257Z,42.30
2018-11-03T10:00:34.716Z,46.23
2018-11-03T10:03:03.163Z,45.67
2018-11-03T10:05:31.586Z,36.07
2018-11-03T10:08:00.180Z,37.03
2018-11-03T10:10:28.598Z,39.80
2018-11-03T10:12:57.077Z,43.57
2018-11-03T10:15:25.536Z,41.30
2018-11-03T10:17:53.984Z,57.43
2018-11-03T10:20:22.519Z,51.67
2018-11-03T10:22:51.100Z,39.20
2018-11-03T10:25:19.963Z,37.00
2018-11-03T10:27:48.896Z,38.50
2018-11-03T10:30:18.082Z,40.47
2018-11-03T10:32:47.183Z,46.93
2018-11-03T10:35:15.824Z,43.00
2018-11-03T10:37:44.664Z,45.87
2018-11-03T10:40:14.968Z,44.23
2018-11-03T10:42:43.716Z,44.53
2018-11-03T10:45:13.453Z,45.13
2018-11-03T10:47:42.105Z,41.97
2018-11-03T10:50:15.642Z,41.90
2018-11-03T10:52:44.882Z,42.63
2018-11-03T10:55:14.776Z,61.03
2018-11-03T10:57:43.560Z,38.57
2018-11-03T11:00:20.625Z,44.40
2018-11-03T11:02:54.280Z,48.83
2018-11-03T11:05:28.129Z,36.60
2018-11-03T11:08:01.884Z,39.87
2018-11-03T11:10:35.643Z,41.00
2018-11-03T11:13:20.361Z,47.03
2018-11-03T11:15:49.853Z,42.83
2018-11-03T11:18:18.274Z,38.30
2018-11-03T11:20:46.720Z,41.80
2018-11-03T11:23:15.174Z,38.83
2018-11-03T11:25:43.641Z,35.30
2018-11-03T11:28:12.139Z,31.57
2018-11-03T11:30:43.109Z,41.17
2018-11-03T11:33:12.934Z,39.30
2018-11-03T11:35:41.724Z,35.00
2018-11-03T11:38:10.856Z,40.33
2018-11-03T11:40:39.853Z,40.17
2018-11-03T11:43:09.850Z,37.87
2018-11-03T11:45:39.597Z,35.10
2018-11-03T11:48:08.053Z,33.93
2018-11-03T11:50:36.549Z,33.13
2018-11-03T11:53:05.361Z,38.03
2018-11-03T11:55:33.815Z,34.53
2018-11-03T11:58:02.661Z,35.97
2018-11-03T12:00:31.191Z,39.70
2018-11-03T12:02:59.663Z,33.70
2018-11-03T12:05:28.168Z,29.33
2018-11-03T12:07:56.716Z,30.97
2018-11-03T12:10:25.200Z,28.27
2018-11-03T12:12:53.700Z,18.57
2018-11-03T12:15:22.211Z,21.03
2018-11-03T12:17:50.643Z,27.20
2018-11-03T12:20:19.104Z,22.87
2018-11-03T12:22:47.575Z,21.50
2018-11-03T12:25:16.025Z,24.87
2018-11-03T12:27:44.513Z,22.40
2018-11-03T12:30:14.947Z,24.70
2018-11-03T12:32:43.498Z,20.17
2018-11-03T12:35:12.094Z,31.93
2018-11-03T12:37:40.913Z,29.53
2018-11-03T12:40:11.768Z,37.07
2018-11-03T12:42:40.145Z,31.00
2018-11-03T12:45:09.248Z,25.60
2018-11-03T12:47:37.815Z,29.70
2018-11-03T12:50:08.660Z,27.87
2018-11-03T12:52:37.121Z,32.93
2018-11-03T12:55:06.876Z,27.90
2018-11-03T12:57:35.365Z,24.23
2018-11-03T13:00:03.953Z,25.40
2018-11-03T13:02:32.438Z,23.60
2018-11-03T13:05:00.909Z,24.30
2018-11-03T13:07:29.381Z,26.13
2018-11-03T13:09:57.899Z,22.57
2018-11-03T13:12:26.341Z,22.00
2018-11-03T13:14:54.781Z,22.10
2018-11-03T13:17:23.262Z,29.20
2018-11-03T13:19:51.685Z,24.00
2018-11-03T13:22:20.137Z,24.33
2018-11-03T13:24:48.835Z,22.27
2018-11-03T13:27:17.295Z,23.50
2018-11-03T13:29:45.747Z,28.30
2018-11-03T13:32:14.196Z,23.47
2018-11-03T13:34:42.753Z,22.17
2018-11-03T13:37:11.217Z,24.20
2018-11-03T13:39:39.608Z,28.63
2018-11-03T13:42:08.147Z,21.80
2018-11-03T13:44:36.597Z,24.63
2018-11-03T13:47:05.166Z,29.77
2018-11-03T13:49:33.568Z,27.03
2018-11-03T13:52:01.990Z,31.00
2018-11-03T13:54:30.451Z,26.70
2018-11-03T13:56:58.929Z,24.10
2018-11-03T13:59:27.335Z,20.77
2018-11-03T14:01:56.087Z,25.50
2018-11-03T14:04:24.596Z,22.73
2018-11-03T14:06:53.110Z,23.73
2018-11-03T14:09:21.536Z,20.50
2018-11-03T14:11:49.948Z,25.87
2018-11-03T14:14:18.371Z,24.67
2018-11-03T14:16:46.848Z,21.87
2018-11-03T14:19:15.275Z,20.60
2018-11-03T14:21:43.763Z,25.87
2018-11-03T14:24:12.185Z,25.90
2018-11-03T14:26:40.625Z,20.93
2018-11-03T14:29:09.190Z,22.23
2018-11-03T14:31:37.593Z,35.57
2018-11-03T14:34:06.290Z,47.80
2018-11-03T14:36:34.725Z,26.93
2018-11-03T14:39:03.281Z,16.97
2018-11-03T14:41:31.773Z,16.30
2018-11-03T14:44:00.191Z,14.40
2018-11-03T14:46:28.626Z,15.27
2018-11-03T14:48:57.134Z,14.10
2018-11-03T14:51:25.541Z,14.90
2018-11-03T14:53:53.989Z,16.57
2018-11-03T14:56:22.435Z,12.73
2018-11-03T14:58:50.890Z,13.80
2018-11-03T15:01:19.354Z,17.50
2018-11-03T15:03:47.898Z,20.83
2018-11-03T15:06:16.434Z,14.60
2018-11-03T15:08:44.829Z,12.93
2018-11-03T15:11:13.285Z,15.43
2018-11-03T15:13:41.784Z,11.83
2018-11-03T15:16:10.187Z,14.33
2018-11-03T15:18:38.590Z,31.60
2018-11-03T15:21:07.086Z,60.07
2018-11-03T15:23:35.768Z,17.83
2018-11-03T15:26:04.259Z,17.13
2018-11-03T15:28:32.724Z,21.20
2018-11-03T15:31:01.198Z,18.10
2018-11-03T15:33:29.693Z,10.87
2018-11-03T15:35:58.160Z,16.03
2018-11-03T15:38:26.568Z,19.73
2018-11-03T15:40:55.026Z,16.67
2018-11-03T15:43:23.551Z,14.03
2018-11-03T15:45:52.232Z,14.27
2018-11-03T15:48:20.702Z,13.63
2018-11-03T15:50:51.797Z,18.43
2018-11-03T15:53:20.591Z,13.37
2018-11-03T15:55:49.017Z,13.77
2018-11-03T15:58:17.452Z,23.77
2018-11-03T16:00:45.876Z,20.60
2018-11-03T16:03:14.315Z,18.90
2018-11-03T16:05:42.738Z,14.83
2018-11-03T16:08:11.186Z,21.77
2018-11-03T16:10:39.646Z,14.47
2018-11-03T16:13:08.250Z,23.13
2018-11-03T16:15:36.734Z,18.70
2018-11-03T16:18:05.358Z,20.37
2018-11-03T16:20:33.868Z,16.30
2018-11-03T16:23:02.373Z,13.83
2018-11-03T16:25:30.799Z,18.33
2018-11-03T16:27:59.238Z,16.60
2018-11-03T16:30:27.734Z,16.73
2018-11-03T16:32:56.109Z,13.73
2018-11-03T16:35:24.576Z,11.47
2018-11-03T16:37:52.969Z,17.60
2018-11-03T16:40:21.413Z,11.60
2018-11-03T16:42:49.820Z,14.83
2018-11-03T16:45:18.260Z,16.83
2018-11-03T16:47:46.784Z,11.33
2018-11-03T16:50:16.236Z,21.03
2018-11-03T16:52:44.874Z,32.30
2018-11-03T16:55:14.111Z,17.90
2018-11-03T16:57:42.518Z,9.07
2018-11-03T17:00:13.964Z,22.00
2018-11-03T17:02:42.742Z,27.53
2018-11-03T17:05:12.419Z,19.40
2018-11-03T17:07:40.852Z,13.17
2018-11-03T17:10:12.768Z,18.23
2018-11-03T17:12:42.616Z,11.20
2018-11-03T17:15:11.356Z,14.97
2018-11-03T17:17:39.932Z,15.27
2018-11-03T17:20:08.769Z,21.60
2018-11-03T17:22:37.542Z,13.27
2018-11-03T17:25:07.173Z,13.67
2018-11-03T17:27:35.619Z,12.90
2018-11-03T17:30:04.445Z,14.47
2018-11-03T17:32:32.977Z,10.23
2018-11-03T17:35:01.399Z,13.03
2018-11-03T17:37:29.813Z,10.43
2018-11-03T17:39:58.333Z,8.60
2018-11-03T17:42:26.782Z,15.50
2018-11-03T17:44:55.214Z,13.47
2018-11-03T17:47:23.663Z,29.30
2018-11-03T17:49:52.164Z,46.83
2018-11-03T17:52:20.773Z,135.63
2018-11-03T17:54:49.247Z,154.67
2018-11-03T17:57:17.774Z,108.60
2018-11-03T17:59:46.187Z,95.50
2018-11-03T18:02:14.648Z,66.17
2018-11-03T18:04:43.075Z,54.43
2018-11-03T18:07:11.520Z,46.87
2018-11-03T18:09:39.930Z,33.70
2018-11-03T18:12:08.348Z,31.00
2018-11-03T18:14:36.794Z,29.23
2018-11-03T18:17:05.541Z,21.23
2018-11-03T18:19:34.020Z,26.43
2018-11-03T18:22:02.405Z,28.40
2018-11-03T18:24:30.883Z,31.90
2018-11-03T18:26:59.501Z,22.53
2018-11-03T18:29:27.919Z,17.00
2018-11-03T18:31:56.372Z,20.17
2018-11-03T18:34:24.849Z,16.63
2018-11-03T18:36:53.355Z,9.77
2018-11-03T18:39:21.829Z,12.93
2018-11-03T18:41:50.258Z,12.43
2018-11-03T18:44:18.696Z,14.03
2018-11-03T18:46:47.224Z,10.80
2018-11-03T18:49:15.606Z,23.70
2018-11-03T18:51:44.100Z,12.10
2018-11-03T18:54:12.587Z,11.70
2018-11-03T18:56:41.045Z,9.17
2018-11-03T18:59:09.514Z,7.97
2018-11-03T19:01:38.000Z,7.00
2018-11-03T19:04:06.492Z,7.73
2018-11-03T19:06:34.931Z,11.43
2018-11-03T19:09:03.638Z,9.20
2018-11-03T19:11:32.049Z,7.60
2018-11-03T19:14:00.490Z,7.20
2018-11-03T19:16:28.946Z,8.23
2018-11-03T19:18:57.559Z,8.87
2018-11-03T19:21:26.004Z,12.10
2018-11-03T19:23:54.482Z,13.90
2018-11-03T19:26:22.928Z,9.53
2018-11-03T19:28:51.403Z,11.43
2018-11-03T19:31:19.850Z,9.97
2018-11-03T19:33:48.316Z,9.10
2018-11-03T19:36:16.755Z,9.73
2018-11-03T19:38:45.174Z,11.93
2018-11-03T19:41:13.610Z,15.83
2018-11-03T19:43:42.000Z,32.17
2018-11-03T19:46:10.437Z,23.67
2018-11-03T19:48:39.515Z,23.17
2018-11-03T19:51:08.001Z,23.57
2018-11-03T19:53:36.480Z,18.13
2018-11-03T19:56:05.229Z,13.33
2018-11-03T19:58:33.761Z,16.00
2018-11-03T20:01:02.183Z,14.80
2018-11-03T20:03:30.630Z,9.30
2018-11-03T20:05:59.033Z,14.70
2018-11-03T20:08:27.471Z,7.23
2018-11-03T20:10:55.902Z,10.10
2018-11-03T20:13:24.375Z,14.87
2018-11-03T20:15:52.905Z,11.93
2018-11-03T20:18:21.387Z,12.80
2018-11-03T20:20:49.780Z,15.10
2018-11-03T20:23:18.191Z,9.97
2018-11-03T20:25:46.657Z,10.87
2018-11-03T20:28:15.097Z,8.50
2018-11-03T20:30:43.550Z,16.03
2018-11-03T20:33:11.997Z,13.03
2018-11-03T20:35:40.455Z,8.23
2018-11-03T20:38:08.927Z,12.97
2018-11-03T20:40:37.336Z,14.00
2018-11-03T20:43:05.878Z,10.23
2018-11-03T20:45:34.284Z,8.70
2018-11-03T20:48:02.786Z,9.83
2018-11-03T20:50:31.225Z,12.23
2018-11-03T20:52:59.681Z,8.50
2018-11-03T20:55:28.155Z,12.47
2018-11-03T20:57:56.657Z,9.80
2018-11-03T21:00:25.128Z,10.80
2018-11-03T21:02:54.475Z,20.13
2018-11-03T21:05:22.897Z,12.43
2018-11-03T21:07:51.398Z,10.20
2018-11-03T21:10:19.833Z,13.97
2018-11-03T21:12:48.274Z,10.87
2018-11-03T21:15:16.692Z,9.63
2018-11-03T21:17:45.214Z,12.70
2018-11-03T21:20:13.640Z,8.33
2018-11-03T21:22:42.149Z,15.40
2018-11-03T21:25:10.608Z,11.67
2018-11-03T21:27:39.056Z,11.90
2018-11-03T21:30:08.823Z,27.97
2018-11-03T21:32:37.317Z,66.53
2018-11-03T21:35:06.030Z,90.73
2018-11-03T21:37:34.485Z,125.73
2018-11-03T21:40:02.995Z,94.80
2018-11-03T21:42:31.433Z,115.83
2018-11-03T21:44:59.980Z,118.40
2018-11-03T21:47:28.455Z,98.67
2018-11-03T21:49:56.906Z,84.73
2018-11-03T21:52:25.359Z,58.00
2018-11-03T21:54:53.871Z,35.90
2018-11-03T21:57:22.326Z,27.43
2018-11-03T21:59:50.857Z,24.90
2018-11-03T22:02:19.309Z,32.50
2018-11-03T22:04:47.785Z,42.93
2018-11-03T22:07:16.266Z,85.17
2018-11-03T22:09:44.738Z,51.73
2018-11-03T22:12:13.940Z,36.40
2018-11-03T22:14:42.384Z,32.53
2018-11-03T22:17:10.791Z,66.07
2018-11-03T22:19:39.249Z,46.80
2018-11-03T22:22:07.680Z,33.40
2018-11-03T22:24:36.181Z,20.83
2018-11-03T22:27:04.905Z,24.73
2018-11-03T22:29:36.310Z,30.60
2018-11-03T22:32:04.872Z,30.33
2018-11-03T22:34:33.358Z,30.17
2018-11-03T22:37:01.771Z,31.60
2018-11-03T22:39:30.173Z,26.77
2018-11-03T22:41:58.650Z,26.23
2018-11-03T22:44:27.090Z,22.07
2018-11-03T22:46:55.607Z,26.70
2018-11-03T22:49:23.999Z,22.20
2018-11-03T22:51:52.509Z,25.70
2018-11-03T22:54:20.886Z,22.20
2018-11-03T22:56:49.333Z,23.27
2018-11-03T22:59:17.887Z,24.60
2018-11-03T23:01:46.326Z,24.93
2018-11-03T23:04:14.772Z,22.93
2018-11-03T23:06:43.183Z,30.57
2018-11-03T23:09:12.206Z,29.50
2018-11-03T23:11:40.984Z,32.43
2018-11-03T23:14:09.473Z,33.90
2018-11-03T23:16:38.477Z,35.60
2018-11-03T23:19:06.931Z,33.57
2018-11-03T23:21:35.376Z,27.30
2018-11-03T23:24:03.836Z,24.60
2018-11-03T23:26:32.302Z,36.37
2018-11-03T23:29:00.713Z,37.50
2018-11-03T23:31:29.159Z,32.13
2018-11-03T23:33:57.537Z,32.50
2018-11-03T23:36:26.014Z,24.10
2018-11-03T23:38:54.436Z,16.70
2018-11-03T23:41:22.903Z,20.40
2018-11-03T23:43:51.398Z,16.57
2018-11-03T23:46:19.826Z,14.60
2018-11-03T23:48:48.336Z,16.00
2018-11-03T23:51:16.669Z,15.73
2018-11-03T23:53:45.102Z,20.57
2018-11-03T23:56:13.553Z,19.90
2018-11-03T23:58:42.013Z,16.67
